Time;durP1;ratioP1;P1;durP2;ratioP2;P2;SDS_P1;SDS_P2;PMS_P1;PMS_P2;Temp;Humidity;BMP_temperature;BMP_pressure;BME280_temperature;BME280_humidity;BME280_pressure;Samples;Min_cycle;Max_cycle;Signal;HPM_P1;HPM_P2
2023/10/13 00:01:34;;;;;;;53.00;35.95;;;16.50;99.90;;;;;;5064959;28;20149;-52
2023/10/13 00:04:01;;;;;;;47.42;35.40;;;16.50;99.90;;;;;;5065084;28;20049;-48
2023/10/13 00:06:28;;;;;;;48.85;35.35;;;;;;;;;;5066002;28;20045;-49
2023/10/13 00:08:55;;;;;;;52.03;36.88;;;16.10;99.90;;;;;;5057502;28;20057;-48
2023/10/13 00:11:21;;;;;;;53.60;36.00;;;16.40;99.90;;;;;;5061369;28;20506;-52
2023/10/13 00:13:50;;;;;;;51.05;36.10;;;16.40;99.90;;;;;;5068164;28;20041;-50
2023/10/13 00:16:21;;;;;;;47.58;36.92;;;16.30;99.90;;;;;;5055233;28;20127;-50
2023/10/13 00:18:50;;;;;;;51.78;37.33;;;16.10;99.90;;;;;;5062372;28;20365;-48
2023/10/13 00:21:30;;;;;;;50.90;36.95;;;16.20;99.90;;;;;;5064327;28;20028;-48
2023/10/13 00:23:57;;;;;;;58.50;36.88;;;16.10;99.90;;;;;;5069118;28;20078;-49
2023/10/13 00:26:27;;;;;;;50.03;35.25;;;16.20;99.90;;;;;;5068829;28;20041;-48
2023/10/13 00:29:32;;;;;;;50.30;36.05;;;;;;;;;;5063292;28;20132;-51
2023/10/13 00:31:48;;;;;;;43.90;35.58;;;16.50;99.90;;;;;;5060643;28;20045;-49
2023/10/13 00:34:28;;;;;;;45.10;34.83;;;16.50;99.90;;;;;;5063940;28;20183;-48
2023/10/13 00:37:27;;;;;;;49.78;35.92;;;16.40;99.90;;;;;;5064526;28;20049;-48
2023/10/13 00:39:56;;;;;;;47.55;34.60;;;16.30;99.90;;;;;;5070395;28;20411;-49
2023/10/13 00:42:30;;;;;;;57.85;35.85;;;16.50;99.90;;;;;;5068631;28;20498;-48
2023/10/13 00:44:56;;;;;;;50.17;35.60;;;16.40;99.90;;;;;;5067313;28;20360;-48
2023/10/13 00:47:37;;;;;;;44.60;34.20;;;16.40;99.90;;;;;;5064030;28;20032;-48
2023/10/13 00:50:05;;;;;;;47.05;34.30;;;16.20;99.90;;;;;;5058535;28;20040;-49
2023/10/13 00:52:34;;;;;;;50.60;35.33;;;16.30;99.90;;;;;;5063868;28;20040;-48
2023/10/13 00:55:01;;;;;;;43.20;32.88;;;16.40;99.90;;;;;;5062903;28;20037;-48
2023/10/13 00:57:27;;;;;;;45.80;34.22;;;16.30;99.90;;;;;;5058901;28;20524;-50
2023/10/13 00:59:54;;;;;;;47.13;33.67;;;16.30;99.90;;;;;;5065850;28;20109;-48
2023/10/13 01:05:02;;;;;;;46.75;33.53;;;16.70;99.90;;;;;;5071205;28;20040;-48
2023/10/13 01:07:28;;;;;;;45.63;32.95;;;16.30;99.90;;;;;;5058059;28;20059;-49
2023/10/13 01:09:55;;;;;;;38.78;31.48;;;;;;;;;;5061251;28;20037;-48
2023/10/13 01:12:24;;;;;;;39.03;31.52;;;16.30;99.90;;;;;;5068729;28;20044;-48
2023/10/13 01:14:50;;;;;;;39.70;31.92;;;16.50;99.90;;;;;;5066769;28;20068;-51
2023/10/13 01:17:15;;;;;;;41.10;32.08;;;16.40;99.90;;;;;;5056315;28;20068;-48
2023/10/13 01:19:45;;;;;;;43.13;30.83;;;16.50;99.90;;;;;;5052939;28;20530;-48
2023/10/13 01:22:11;;;;;;;40.38;30.30;;;16.40;99.90;;;;;;5068828;28;20036;-48
2023/10/13 01:24:38;;;;;;;34.67;28.27;;;;;;;;;;5062472;28;20475;-49
2023/10/13 01:27:25;;;;;;;39.35;28.60;;;;;;;;;;5065183;28;20655;-51
2023/10/13 01:29:55;;;;;;;37.88;28.48;;;16.40;99.90;;;;;;5067322;28;20049;-48
2023/10/13 01:32:22;;;;;;;37.15;28.45;;;16.40;99.90;;;;;;5062072;28;20045;-49
2023/10/13 01:34:49;;;;;;;35.10;27.80;;;16.30;99.90;;;;;;5059433;28;20098;-50
2023/10/13 01:37:19;;;;;;;38.23;27.77;;;16.30;99.90;;;;;;5070809;28;20314;-48
2023/10/13 01:39:47;;;;;;;34.67;27.48;;;16.40;99.90;;;;;;5071795;28;20396;-50
2023/10/13 01:42:19;;;;;;;36.35;26.90;;;16.30;99.90;;;;;;5071850;28;20052;-49
2023/10/13 01:44:45;;;;;;;38.70;27.30;;;16.30;99.90;;;;;;5070319;28;20135;-48
2023/10/13 01:47:12;;;;;;;33.97;27.05;;;16.30;99.90;;;;;;5062009;28;20124;-48
2023/10/13 01:49:49;;;;;;;38.60;28.63;;;16.20;99.90;;;;;;5062846;28;20051;-48
2023/10/13 01:52:16;;;;;;;40.60;27.63;;;16.40;99.90;;;;;;5067526;28;20041;-50
2023/10/13 01:54:44;;;;;;;40.55;28.75;;;16.40;99.90;;;;;;5071071;28;20045;-48
2023/10/13 01:57:14;;;;;;;39.00;26.80;;;16.40;99.90;;;;;;5070309;28;20044;-48
2023/10/13 01:59:44;;;;;;;35.35;27.73;;;16.20;99.90;;;;;;5065639;28;20402;-48
2023/10/13 02:02:12;;;;;;;36.70;26.63;;;16.40;99.90;;;;;;5067964;28;20443;-52
2023/10/13 02:04:43;;;;;;;39.25;27.25;;;16.40;99.90;;;;;;5060294;28;20178;-52
2023/10/13 02:07:08;;;;;;;34.45;25.55;;;16.30;99.90;;;;;;5060100;28;20055;-52
2023/10/13 02:09:37;;;;;;;33.80;25.95;;;16.30;99.90;;;;;;5063172;28;20037;-50
2023/10/13 02:12:02;;;;;;;37.75;26.38;;;16.30;99.90;;;;;;5067786;28;20044;-50
2023/10/13 02:14:28;;;;;;;36.88;26.27;;;16.30;99.90;;;;;;5065422;28;20048;-50
2023/10/13 02:17:12;;;;;;;34.70;25.73;;;16.20;99.90;;;;;;5059446;28;21825;-48
2023/10/13 02:19:45;;;;;;;31.48;24.90;;;16.40;99.90;;;;;;5062484;28;20464;-51
2023/10/13 02:22:31;;;;;;;34.58;25.67;;;16.20;99.90;;;;;;5067046;28;20352;-52
2023/10/13 02:25:01;;;;;;;40.80;27.40;;;15.50;99.90;;;;;;5061972;28;20055;-49
2023/10/13 02:27:27;;;;;;;31.42;25.17;;;16.30;99.90;;;;;;5071142;28;20040;-47
2023/10/13 02:29:58;;;;;;;34.97;25.67;;;16.20;99.90;;;;;;5072231;28;20059;-48
2023/10/13 02:32:26;;;;;;;33.85;25.65;;;16.20;99.90;;;;;;5069477;28;20045;-48
2023/10/13 02:34:52;;;;;;;34.65;25.50;;;16.30;99.90;;;;;;5063089;28;20128;-47
2023/10/13 02:37:19;;;;;;;34.67;25.63;;;16.20;99.90;;;;;;5071560;28;20164;-49
2023/10/13 02:39:45;;;;;;;;;;;16.40;99.90;;;;;;5070362;28;20051;-48
2023/10/13 02:42:23;;;;;;;31.13;25.35;;;16.40;99.90;;;;;;5061200;28;19921;-50
2023/10/13 02:44:52;;;;;;;;;;;16.40;99.90;;;;;;5068452;28;20057;-49
2023/10/13 02:47:19;;;;;;;30.20;24.42;;;16.40;99.90;;;;;;5060540;28;20115;-48
2023/10/13 02:49:47;;;;;;;31.02;24.63;;;16.30;99.90;;;;;;5066867;28;20507;-48
2023/10/13 02:52:13;;;;;;;29.52;24.20;;;16.20;99.90;;;;;;5070855;28;20091;-51
2023/10/13 02:54:46;;;;;;;33.53;26.25;;;16.20;99.90;;;;;;5065220;28;20512;-48
2023/10/13 02:57:15;;;;;;;34.80;25.35;;;16.20;99.90;;;;;;5062254;28;20041;-48
2023/10/13 02:59:47;;;;;;;33.03;25.58;;;16.20;99.90;;;;;;5070111;28;20048;-50
2023/10/13 03:02:17;;;;;;;32.55;24.30;;;16.30;99.90;;;;;;5067679;28;20043;-50
2023/10/13 03:04:50;;;;;;;30.90;25.67;;;16.40;99.90;;;;;;5067717;28;20032;-51
2023/10/13 03:07:19;;;;;;;32.17;25.33;;;16.30;99.90;;;;;;5061134;28;20044;-48
2023/10/13 03:09:50;;;;;;;35.50;25.58;;;16.20;99.90;;;;;;5062541;28;20825;-48
2023/10/13 03:12:20;;;;;;;30.30;26.08;;;16.30;99.90;;;;;;5071646;28;20370;-48
2023/10/13 03:14:48;;;;;;;33.55;25.08;;;16.80;99.90;;;;;;5064365;28;20049;-48
2023/10/13 03:17:16;;;;;;;30.20;25.45;;;16.30;99.90;;;;;;5069213;28;20415;-47
2023/10/13 03:19:49;;;;;;;33.08;25.70;;;16.40;99.90;;;;;;5068187;28;20084;-50
2023/10/13 03:22:16;;;;;;;38.28;26.50;;;16.40;99.90;;;;;;5072043;28;20040;-51
2023/10/13 03:24:46;;;;;;;31.15;26.13;;;16.40;99.90;;;;;;5070762;28;20118;-48
2023/10/13 03:27:16;;;;;;;31.60;25.27;;;16.50;99.90;;;;;;5064239;28;20064;-49
2023/10/13 03:29:43;;;;;;;28.65;24.05;;;16.30;99.90;;;;;;5085135;28;20040;-49
2023/10/13 03:32:14;;;;;;;33.63;25.43;;;16.30;99.90;;;;;;5071844;28;20455;-50
2023/10/13 03:34:49;;;;;;;30.25;24.38;;;16.40;99.90;;;;;;5058620;28;20368;-50
2023/10/13 03:37:22;;;;;;;32.15;24.98;;;16.50;99.90;;;;;;5069688;28;20040;-48
2023/10/13 03:39:48;;;;;;;28.60;24.55;;;16.30;99.90;;;;;;5069428;28;20041;-48
2023/10/13 03:42:18;;;;;;;30.42;25.30;;;16.50;99.90;;;;;;5071067;28;20052;-48
2023/10/13 03:44:48;;;;;;;34.00;25.33;;;16.30;99.90;;;;;;5062915;28;20064;-50
2023/10/13 03:47:26;;;;;;;32.60;25.15;;;16.20;99.90;;;;;;5064171;28;20398;-49
2023/10/13 03:50:14;;;;;;;33.38;24.20;;;16.60;99.90;;;;;;5066808;28;20063;-48
2023/10/13 03:52:39;;;;;;;32.67;25.55;;;16.30;99.90;;;;;;5060631;28;20182;-47
2023/10/13 03:55:06;;;;;;;29.83;23.95;;;16.60;99.90;;;;;;5082092;28;20550;-48
2023/10/13 03:57:37;;;;;;;29.55;23.92;;;16.30;99.90;;;;;;5061633;28;20380;-48
2023/10/13 04:00:09;;;;;;;30.52;24.17;;;16.30;99.90;;;;;;5066110;28;20152;-48
2023/10/13 04:02:36;;;;;;;31.80;24.15;;;16.50;99.90;;;;;;5063705;28;20051;-51
2023/10/13 04:05:07;;;;;;;28.77;22.88;;;16.40;99.90;;;;;;5067547;28;20036;-49
2023/10/13 04:07:39;;;;;;;26.92;22.10;;;16.20;99.90;;;;;;5061622;28;20053;-49
2023/10/13 04:15:43;;;;;;;28.27;21.75;;;16.50;99.90;;;;;;5053926;28;20148;-48
2023/10/13 04:18:30;;;;;;;29.40;22.30;;;16.30;99.90;;;;;;5065985;28;20051;-48
2023/10/13 04:21:08;;;;;;;29.33;21.10;;;16.40;99.90;;;;;;5057481;28;20040;-51
2023/10/13 04:24:08;;;;;;;;;;;16.60;99.90;;;;;;5063982;28;20131;-49
2023/10/13 04:26:22;;;;;;;23.13;19.65;;;16.30;99.90;;;;;;5062002;28;20003;-48
2023/10/13 04:28:52;;;;;;;28.50;21.45;;;16.50;99.90;;;;;;5060186;28;20052;-47
2023/10/13 04:31:46;;;;;;;25.38;19.92;;;16.50;99.90;;;;;;5058797;28;20468;-48
2023/10/13 04:34:19;;;;;;;24.80;20.30;;;16.60;99.90;;;;;;5052502;28;20051;-48
2023/10/13 04:36:46;;;;;;;28.33;20.30;;;16.50;99.90;;;;;;5065049;28;20737;-49
2023/10/13 04:39:29;;;;;;;27.20;20.80;;;16.30;99.90;;;;;;5067049;28;20048;-48
2023/10/13 05:02:53;;;;;;;25.83;20.73;;;16.50;99.90;;;;;;5059882;28;20052;-51
2023/10/13 05:05:31;;;;;;;27.05;21.77;;;16.20;99.90;;;;;;5057499;28;20178;-49
2023/10/13 05:51:47;;;;;;;20.00;14.50;;;16.40;99.90;;;;;;5065868;28;20045;-50
2023/10/13 06:29:33;;;;;;;14.70;10.80;;;16.20;99.90;;;;;;5064934;28;20049;-48
2023/10/13 06:32:01;;;;;;;15.50;10.35;;;16.30;99.90;;;;;;5073212;28;20044;-51
2023/10/13 06:34:45;;;;;;;13.13;10.05;;;16.10;99.90;;;;;;5072380;28;20115;-48
2023/10/13 06:37:25;;;;;;;13.15;10.10;;;16.30;99.90;;;;;;5069181;28;20067;-50
2023/10/13 06:39:56;;;;;;;12.05;9.35;;;16.20;99.90;;;;;;5067584;28;20115;-48
2023/10/13 06:42:28;;;;;;;13.88;9.30;;;16.20;99.90;;;;;;5062104;28;20120;-49
2023/10/13 06:45:00;;;;;;;14.35;9.25;;;16.20;99.90;;;;;;5070770;28;20064;-48
2023/10/13 06:47:27;;;;;;;14.57;9.50;;;16.40;99.90;;;;;;5069774;28;20057;-48
2023/10/13 06:49:54;;;;;;;13.80;9.00;;;16.40;99.90;;;;;;5071216;28;20101;-50
2023/10/13 06:52:23;;;;;;;13.10;9.50;;;16.40;99.90;;;;;;5060615;28;20059;-52
2023/10/13 06:54:53;;;;;;;13.13;9.02;;;16.60;99.90;;;;;;5062271;28;20037;-50
2023/10/13 06:57:22;;;;;;;14.85;8.90;;;16.70;99.90;;;;;;5070260;28;20087;-52
2023/10/13 06:59:48;;;;;;;15.43;8.77;;;16.70;99.90;;;;;;5068852;28;22574;-52
2023/10/13 07:02:21;;;;;;;12.38;8.52;;;16.70;99.90;;;;;;5059158;28;20045;-52
2023/10/13 07:05:07;;;;;;;11.50;7.30;;;16.60;99.90;;;;;;5055236;28;20059;-52
2023/10/13 07:07:33;;;;;;;11.50;7.50;;;16.60;99.90;;;;;;5062998;28;20119;-52
2023/10/13 07:09:58;;;;;;;12.20;7.20;;;16.70;99.90;;;;;;5063503;28;20451;-52
2023/10/13 07:12:27;;;;;;;12.55;7.45;;;16.80;99.90;;;;;;5061235;28;20090;-52
2023/10/13 07:15:10;;;;;;;12.52;6.68;;;16.80;99.90;;;;;;5057858;28;20044;-50
2023/10/13 07:17:40;;;;;;;10.98;6.82;;;16.80;99.90;;;;;;5060167;28;20635;-48
2023/10/13 07:20:24;;;;;;;13.35;6.80;;;16.90;99.90;;;;;;5062017;28;20116;-49
2023/10/13 07:23:03;;;;;;;14.18;6.80;;;16.90;99.90;;;;;;5057905;28;20052;-48
2023/10/13 07:25:40;;;;;;;12.00;6.68;;;16.90;99.90;;;;;;5067325;28;20439;-48
2023/10/13 07:28:10;;;;;;;12.68;6.85;;;17.00;99.90;;;;;;5060790;28;20048;-48
2023/10/13 07:30:49;;;;;;;13.82;7.82;;;16.90;99.90;;;;;;5060467;28;20045;-51
2023/10/13 07:33:19;;;;;;;13.02;7.15;;;17.00;99.90;;;;;;5062404;28;20431;-48
2023/10/13 07:36:15;;;;;;;12.23;6.88;;;17.00;99.90;;;;;;5066119;28;20032;-51
2023/10/13 07:38:42;;;;;;;13.48;6.72;;;17.10;99.90;;;;;;5067336;28;20131;-51
2023/10/13 07:41:09;;;;;;;13.27;6.63;;;17.10;99.90;;;;;;5059447;28;20048;-52
2023/10/13 07:43:37;;;;;;;16.13;6.88;;;17.10;99.90;;;;;;5066090;28;20124;-48
2023/10/13 07:46:09;;;;;;;16.25;7.07;;;17.10;99.90;;;;;;5060411;28;20613;-48
2023/10/13 07:48:45;;;;;;;14.52;7.20;;;17.10;99.90;;;;;;5062604;28;20485;-50
2023/10/13 07:51:13;;;;;;;14.88;6.90;;;17.00;99.90;;;;;;5064494;28;20033;-49
2023/10/13 07:53:48;;;;;;;13.68;7.20;;;17.00;99.90;;;;;;5063243;28;20044;-49
2023/10/13 07:56:18;;;;;;;14.27;6.65;;;16.90;99.90;;;;;;5058124;28;20450;-51
2023/10/13 07:59:00;;;;;;;17.05;6.65;;;17.10;99.90;;;;;;5068558;28;20044;-51
2023/10/13 08:01:26;;;;;;;12.55;6.47;;;17.10;99.90;;;;;;5065952;28;20059;-50
2023/10/13 08:04:11;;;;;;;14.07;6.82;;;16.90;99.90;;;;;;5061377;28;20068;-49
2023/10/13 08:06:41;;;;;;;14.23;6.47;;;17.00;99.90;;;;;;5063737;28;20044;-48
2023/10/13 08:09:08;;;;;;;15.38;7.20;;;17.10;99.90;;;;;;5060012;28;20041;-49
2023/10/13 08:11:37;;;;;;;14.43;7.22;;;17.00;99.90;;;;;;5067871;28;20068;-48
2023/10/13 08:14:22;;;;;;;16.45;7.07;;;17.00;99.90;;;;;;5064692;28;20045;-48
2023/10/13 08:16:54;;;;;;;15.00;6.82;;;17.10;99.90;;;;;;5063081;28;20147;-49
2023/10/13 08:19:27;;;;;;;15.70;7.30;;;17.10;99.90;;;;;;5067450;28;20098;-48
2023/10/13 08:22:23;;;;;;;15.02;7.13;;;17.20;99.90;;;;;;5062861;28;20076;-50
2023/10/13 08:30:26;;;;;;;12.00;6.75;;;;;;;;;;5068391;28;20106;-48
2023/10/13 08:32:50;;;;;;;13.93;7.10;;;17.50;99.90;;;;;;5055642;28;20041;-49
2023/10/13 08:35:34;;;;;;;11.18;7.90;;;17.50;99.90;;;;;;5064231;28;20432;-51
2023/10/13 08:38:04;;;;;;;11.23;6.93;;;17.70;99.90;;;;;;5059993;28;20262;-49
2023/10/13 08:43:16;;;;;;;10.52;6.63;;;17.90;99.90;;;;;;5063234;28;20045;-51
2023/10/13 09:07:15;;;;;;;8.65;6.32;;;18.50;99.90;;;;;;5058636;28;20474;-50
2023/10/13 09:12:35;;;;;;;8.80;5.50;;;18.60;99.90;;;;;;5064211;28;20388;-50
2023/10/13 09:25:38;;;;;;;15.38;6.68;;;18.80;99.90;;;;;;5061930;28;20132;-50
2023/10/13 09:28:14;;;;;;;12.13;6.85;;;18.90;99.90;;;;;;5058861;28;20135;-48
2023/10/13 09:30:47;;;;;;;11.35;5.82;;;18.90;99.90;;;;;;5058211;28;20513;-51
2023/10/13 09:33:15;;;;;;;11.77;5.80;;;19.00;99.90;;;;;;5055392;28;20087;-48
2023/10/13 09:35:50;;;;;;;14.98;6.28;;;19.00;99.90;;;;;;5061867;28;20048;-48
2023/10/13 09:38:17;;;;;;;14.57;6.20;;;18.90;99.90;;;;;;5062258;28;20048;-48
2023/10/13 09:40:50;;;;;;;11.18;5.95;;;18.90;99.90;;;;;;5062219;28;20049;-48
2023/10/13 09:43:19;;;;;;;13.60;6.18;;;18.90;99.90;;;;;;5062024;28;20115;-48
2023/10/13 09:46:07;;;;;;;14.07;6.43;;;18.80;99.90;;;;;;5059090;28;20053;-49
2023/10/13 09:48:33;;;;;;;15.07;6.10;;;18.80;99.90;;;;;;5058945;28;20044;-51
2023/10/13 09:51:06;;;;;;;15.00;6.25;;;18.80;99.90;;;;;;5056499;28;20123;-48
2023/10/13 09:53:34;;;;;;;12.85;6.38;;;;;;;;;;5066016;28;20032;-50
2023/10/13 09:56:13;;;;;;;14.75;6.20;;;18.70;99.90;;;;;;5062098;28;20096;-48
2023/10/13 09:58:56;;;;;;;13.63;5.88;;;18.70;99.90;;;;;;5063771;28;20048;-52
2023/10/13 10:01:31;;;;;;;12.13;6.10;;;;;;;;;;5063547;28;20048;-49
2023/10/13 10:04:16;;;;;;;10.57;5.85;;;18.70;99.90;;;;;;5064998;28;20573;-49
2023/10/13 10:06:52;;;;;;;12.25;6.00;;;18.70;99.90;;;;;;5061494;28;20056;-51
2023/10/13 10:09:22;;;;;;;15.75;6.95;;;18.70;99.90;;;;;;5066937;28;20116;-49
2023/10/13 10:12:09;;;;;;;12.80;6.13;;;18.70;99.90;;;;;;5062990;28;20037;-50
2023/10/13 10:14:56;;;;;;;12.18;5.97;;;18.70;99.90;;;;;;5068682;28;20094;-51
2023/10/13 10:17:22;;;;;;;14.75;6.78;;;18.70;99.90;;;;;;5069533;28;20067;-50
2023/10/13 10:19:56;;;;;;;13.68;6.32;;;18.70;99.90;;;;;;5058500;28;20045;-49
2023/10/13 10:22:44;;;;;;;11.38;6.43;;;18.70;99.90;;;;;;5055182;28;20120;-48
2023/10/13 10:25:25;;;;;;;15.88;6.40;;;18.70;99.90;;;;;;5065623;28;20068;-51
2023/10/13 10:27:58;;;;;;;17.73;6.57;;;18.80;99.90;;;;;;5070987;28;20102;-51
2023/10/13 10:30:28;;;;;;;14.00;6.43;;;18.80;99.90;;;;;;5062958;28;20033;-48
2023/10/13 10:32:59;;;;;;;13.68;6.45;;;18.90;99.90;;;;;;5061751;28;20049;-50
2023/10/13 10:35:32;;;;;;;15.60;7.38;;;18.80;99.90;;;;;;5057465;28;20033;-48
2023/10/13 10:38:11;;;;;;;14.65;6.22;;;18.90;99.90;;;;;;5063343;28;20103;-48
2023/10/13 10:40:51;;;;;;;16.80;6.45;;;18.90;99.90;;;;;;5062721;28;20041;-51
2023/10/13 10:43:17;;;;;;;14.52;6.10;;;19.00;99.90;;;;;;5060888;28;20094;-49
2023/10/13 10:45:49;;;;;;;13.63;7.30;;;19.10;99.90;;;;;;5062574;28;20060;-49
2023/10/13 10:48:18;;;;;;;14.73;6.30;;;19.10;99.90;;;;;;5062228;28;20406;-50
2023/10/13 10:50:54;;;;;;;13.32;6.57;;;19.10;99.90;;;;;;5065271;28;20040;-47
2023/10/13 10:53:33;;;;;;;16.48;6.60;;;19.20;99.90;;;;;;5069623;28;20729;-47
2023/10/13 10:56:19;;;;;;;15.48;6.07;;;19.30;99.90;;;;;;5066655;28;20044;-48
2023/10/13 10:58:54;;;;;;;15.75;6.45;;;19.30;99.90;;;;;;5054485;28;20048;-48
2023/10/13 11:01:21;;;;;;;13.07;6.88;;;19.30;99.90;;;;;;5059487;28;20033;-48
2023/10/13 11:03:59;;;;;;;9.93;5.75;;;19.40;99.90;;;;;;5062117;28;20037;-48
2023/10/13 11:06:28;;;;;;;13.73;5.88;;;19.40;99.90;;;;;;5072053;28;20036;-50
2023/10/13 11:09:18;;;;;;;11.68;5.75;;;19.50;99.90;;;;;;5068788;28;20029;-48
2023/10/13 11:11:52;;;;;;;14.23;6.18;;;19.50;99.90;;;;;;5065102;28;20041;-49
2023/10/13 11:14:24;;;;;;;12.93;5.93;;;19.60;99.90;;;;;;5062677;28;20395;-49
2023/10/13 11:16:51;;;;;;;17.52;7.00;;;;;;;;;;5067591;28;21285;-50
2023/10/13 11:19:20;;;;;;;15.70;6.18;;;19.70;99.90;;;;;;5060658;28;20076;-48
2023/10/13 11:21:47;;;;;;;16.23;6.32;;;19.60;99.90;;;;;;5060581;28;20112;-49
2023/10/13 11:24:13;;;;;;;16.50;5.90;;;19.70;99.90;;;;;;5060965;28;20049;-49
2023/10/13 11:26:57;;;;;;;13.90;5.32;;;19.70;99.90;;;;;;5063529;28;20376;-48
2023/10/13 11:29:33;;;;;;;13.88;5.97;;;19.80;99.90;;;;;;5062674;28;20041;-52
2023/10/13 11:32:00;;;;;;;17.83;6.47;;;19.80;99.90;;;;;;5060324;28;20391;-49
2023/10/13 11:34:35;;;;;;;14.43;6.30;;;19.80;99.90;;;;;;5063084;28;20059;-48
2023/10/13 11:37:28;;;;;;;17.50;6.07;;;19.80;99.90;;;;;;5061941;28;20033;-49
2023/10/13 11:39:47;;;;;;;16.02;6.13;;;19.90;99.90;;;;;;5056494;28;20037;-49
2023/10/13 11:42:12;;;;;;;14.48;6.47;;;20.00;99.90;;;;;;5062261;28;20044;-48
2023/10/13 11:44:45;;;;;;;13.95;6.07;;;20.00;99.90;;;;;;5072473;28;20597;-47
2023/10/13 11:50:05;;;;;;;13.57;5.90;;;20.10;99.90;;;;;;5032728;28;20044;-48
2023/10/13 11:52:30;;;;;;;13.35;6.05;;;20.20;99.90;;;;;;5073216;28;20127;-49
2023/10/13 11:54:56;;;;;;;12.80;6.60;;;20.40;99.90;;;;;;5086328;28;20128;-48
2023/10/13 11:57:22;;;;;;;14.90;6.30;;;;;;;;;;5073102;28;20102;-49
2023/10/13 11:59:56;;;;;;;11.10;5.75;;;20.50;99.90;;;;;;5072869;28;20131;-48
2023/10/13 12:04:57;;;;;;;17.30;6.57;;;20.50;99.90;;;;;;5073048;28;20505;-49
2023/10/13 12:10:15;;;;;;;13.80;6.03;;;20.40;99.90;;;;;;5055930;28;20053;-47
2023/10/13 12:12:43;;;;;;;13.13;6.20;;;20.20;99.90;;;;;;5052711;28;20045;-50
2023/10/13 12:15:09;;;;;;;12.85;5.80;;;20.20;99.90;;;;;;5052665;28;20476;-49
2023/10/13 12:17:36;;;;;;;15.03;6.10;;;20.20;99.90;;;;;;5052424;28;20041;-47
2023/10/13 12:20:09;;;;;;;18.45;6.43;;;20.20;99.90;;;;;;5058219;28;20295;-48
2023/10/13 12:22:51;;;;;;;16.75;6.35;;;20.20;99.90;;;;;;5054210;28;20080;-49
2023/10/13 12:27:59;;;;;;;14.70;6.40;;;20.20;99.90;;;;;;5072293;28;20084;-48
2023/10/13 12:30:48;;;;;;;13.10;6.43;;;20.20;99.90;;;;;;5071283;28;20036;-48
2023/10/13 12:33:16;;;;;;;15.85;6.28;;;20.20;99.90;;;;;;5052361;28;20071;-49
2023/10/13 12:36:03;;;;;;;11.30;5.97;;;20.20;99.90;;;;;;5051953;28;20136;-49
2023/10/13 12:52:16;;;;;;;17.00;6.78;;;20.30;99.90;;;;;;5070401;28;20044;-50
2023/10/13 12:54:58;;;;;;;16.10;6.22;;;20.30;99.90;;;;;;5088051;28;20472;-49
2023/10/13 12:57:28;;;;;;;16.13;7.50;;;20.40;99.90;;;;;;5064662;28;20044;-50
2023/10/13 12:59:54;;;;;;;13.88;7.07;;;20.20;99.90;;;;;;5065432;28;20124;-51
2023/10/13 13:02:21;;;;;;;15.32;7.05;;;20.30;99.90;;;;;;5058232;28;20049;-48
2023/10/13 13:04:53;;;;;;;12.85;6.93;;;20.30;99.90;;;;;;5051911;28;20098;-48
2023/10/13 13:07:18;;;;;;;14.57;6.43;;;20.20;99.90;;;;;;5052936;28;20041;-51
2023/10/13 13:09:44;;;;;;;14.68;6.75;;;20.20;99.90;;;;;;5052134;28;20561;-52
2023/10/13 13:12:12;;;;;;;20.15;6.65;;;20.30;99.90;;;;;;5064279;28;20052;-49
2023/10/13 13:14:41;;;;;;;15.52;6.15;;;20.20;99.90;;;;;;5071224;28;20081;-51
2023/10/13 13:17:06;;;;;;;17.10;6.50;;;20.30;99.90;;;;;;5071620;28;20056;-49
2023/10/13 13:19:36;;;;;;;15.07;7.03;;;20.30;99.90;;;;;;5071557;28;20114;-48
2023/10/13 13:22:03;;;;;;;17.20;6.30;;;20.40;99.90;;;;;;5069162;28;20045;-49
2023/10/13 13:24:29;;;;;;;13.27;6.57;;;20.30;99.90;;;;;;5052098;28;20037;-48
2023/10/13 13:26:56;;;;;;;12.88;6.63;;;20.40;99.90;;;;;;5051441;28;20131;-48
2023/10/13 13:29:22;;;;;;;16.65;6.03;;;20.40;99.90;;;;;;5051036;28;20390;-48
2023/10/13 13:31:47;;;;;;;13.48;6.80;;;20.30;99.90;;;;;;5070276;28;20135;-47
2023/10/13 13:34:13;;;;;;;16.70;6.53;;;20.30;99.90;;;;;;5071408;28;20067;-48
2023/10/13 13:36:44;;;;;;;15.35;6.25;;;20.20;99.90;;;;;;5071345;28;20124;-47
2023/10/13 13:39:10;;;;;;;13.98;6.35;;;20.30;99.90;;;;;;5069298;28;20060;-51
2023/10/13 13:41:36;;;;;;;13.38;6.20;;;20.30;99.90;;;;;;5066377;28;20044;-48
2023/10/13 13:44:14;;;;;;;14.20;6.32;;;20.30;99.90;;;;;;5067070;28;20475;-48
2023/10/13 13:46:43;;;;;;;15.25;6.30;;;20.30;99.90;;;;;;5054353;28;20532;-48
2023/10/13 13:49:17;;;;;;;16.38;6.70;;;20.20;99.90;;;;;;5060433;28;20076;-48
2023/10/13 13:51:51;;;;;;;17.90;6.57;;;20.20;99.90;;;;;;5054935;28;20452;-48
2023/10/13 13:54:18;;;;;;;15.32;6.50;;;20.10;99.90;;;;;;5071102;28;20039;-51
2023/10/13 13:56:44;;;;;;;11.97;6.93;;;20.00;99.90;;;;;;5070998;28;20040;-48
2023/10/13 13:59:12;;;;;;;17.85;6.40;;;19.90;99.90;;;;;;5063287;28;20041;-50
2023/10/13 14:01:37;;;;;;;14.77;7.20;;;19.90;99.90;;;;;;5050769;28;20048;-49
2023/10/13 14:04:06;;;;;;;14.82;6.95;;;19.90;99.90;;;;;;5054478;28;20045;-48
2023/10/13 14:06:33;;;;;;;15.75;6.53;;;19.80;99.90;;;;;;5071755;28;20053;-47
2023/10/13 14:09:02;;;;;;;16.20;6.40;;;19.80;99.90;;;;;;5070912;28;20053;-48
2023/10/13 14:14:12;;;;;;;14.75;6.93;;;19.60;99.90;;;;;;5052511;28;20225;-48
2023/10/13 14:16:46;;;;;;;13.38;6.85;;;19.60;99.90;;;;;;5051011;28;20071;-49
2023/10/13 14:19:12;;;;;;;15.43;7.50;;;19.50;99.90;;;;;;5051209;28;20140;-48
2023/10/13 14:21:38;;;;;;;23.63;7.40;;;19.50;99.90;;;;;;5061665;28;20060;-48
2023/10/13 14:24:13;;;;;;;14.27;6.63;;;19.50;99.90;;;;;;5067412;28;20064;-50
2023/10/13 14:26:39;;;;;;;15.23;6.60;;;19.40;99.90;;;;;;5051063;28;20068;-47
2023/10/13 14:29:08;;;;;;;15.13;7.00;;;19.40;99.90;;;;;;5050831;28;20048;-50
2023/10/13 14:31:39;;;;;;;15.50;6.80;;;19.30;99.90;;;;;;5050714;28;20398;-48
2023/10/13 14:34:06;;;;;;;16.52;7.28;;;19.30;99.90;;;;;;5068571;28;20490;-48
2023/10/13 14:36:35;;;;;;;17.67;7.38;;;19.20;99.90;;;;;;5070996;28;20482;-47
2023/10/13 14:39:02;;;;;;;18.50;7.72;;;19.10;99.90;;;;;;5067557;28;20056;-47
2023/10/13 14:41:27;;;;;;;16.43;7.13;;;19.10;99.90;;;;;;5051278;28;20422;-48
2023/10/13 14:43:56;;;;;;;15.40;7.88;;;19.00;99.90;;;;;;5053886;28;20041;-48
2023/10/13 14:46:22;;;;;;;19.73;8.45;;;19.00;99.90;;;;;;5054614;28;20049;-48
2023/10/13 14:48:52;;;;;;;17.45;7.55;;;18.90;99.90;;;;;;5064640;28;20090;-48
2023/10/13 14:51:18;;;;;;;15.20;7.55;;;18.90;99.90;;;;;;5074492;28;20045;-46
2023/10/13 14:53:47;;;;;;;14.52;7.78;;;18.80;99.90;;;;;;5082324;28;20036;-47
2023/10/13 14:56:14;;;;;;;18.73;8.40;;;18.70;99.90;;;;;;5076598;28;20033;-49
2023/10/13 14:58:44;;;;;;;17.70;7.67;;;18.70;99.90;;;;;;5064418;28;20045;-50
2023/10/13 15:01:15;;;;;;;17.88;7.85;;;18.60;99.90;;;;;;5052466;28;20044;-48
2023/10/13 15:03:42;;;;;;;17.15;8.80;;;18.60;99.90;;;;;;5054266;28;20049;-47
2023/10/13 15:06:07;;;;;;;14.70;8.40;;;18.50;99.90;;;;;;5054381;28;20099;-47
2023/10/13 15:08:33;;;;;;;14.63;7.40;;;18.50;99.90;;;;;;5055859;28;20487;-47
2023/10/13 15:11:12;;;;;;;15.63;7.45;;;18.50;99.90;;;;;;5054032;28;20475;-50
2023/10/13 15:13:39;;;;;;;17.88;8.20;;;18.40;99.90;;;;;;5053062;28;20049;-46
2023/10/13 15:16:15;;;;;;;16.05;7.78;;;18.40;99.90;;;;;;5052309;28;20049;-48
2023/10/13 15:18:40;;;;;;;16.75;7.47;;;18.30;99.90;;;;;;5055030;28;20130;-46
2023/10/13 15:21:08;;;;;;;16.70;7.55;;;18.20;99.90;;;;;;5053503;28;20483;-48
2023/10/13 15:23:42;;;;;;;19.25;7.95;;;18.20;99.90;;;;;;5058154;28;20055;-46
2023/10/13 15:26:09;;;;;;;14.70;7.68;;;18.20;99.90;;;;;;5073552;28;20074;-47
2023/10/13 15:28:38;;;;;;;12.77;7.72;;;18.10;99.90;;;;;;5070511;28;20402;-49
2023/10/13 15:31:22;;;;;;;16.63;7.75;;;18.10;99.90;;;;;;5055010;28;20050;-47
2023/10/13 15:33:52;;;;;;;15.93;8.60;;;18.00;99.90;;;;;;5052187;28;20122;-51
2023/10/13 15:36:19;;;;;;;15.23;7.75;;;18.00;99.90;;;;;;5053367;28;20156;-49
2023/10/13 15:38:46;;;;;;;17.90;7.35;;;18.00;99.90;;;;;;5054885;28;20041;-46
2023/10/13 15:41:12;;;;;;;14.67;7.63;;;18.00;99.90;;;;;;5053389;28;20528;-47
2023/10/13 15:43:42;;;;;;;16.13;8.00;;;17.90;99.90;;;;;;5053358;28;20106;-48
2023/10/13 15:46:16;;;;;;;15.05;7.53;;;17.90;99.90;;;;;;5059920;28;20052;-47
2023/10/13 15:48:45;;;;;;;20.17;7.93;;;17.80;99.90;;;;;;5071083;28;20047;-47
2023/10/13 15:51:14;;;;;;;15.63;7.78;;;17.90;99.90;;;;;;5058284;28;20127;-47
2023/10/13 15:53:40;;;;;;;13.93;7.18;;;17.90;99.90;;;;;;5065727;28;20479;-50
2023/10/13 15:56:11;;;;;;;18.05;7.78;;;17.80;99.90;;;;;;5052906;28;20087;-47
2023/10/13 15:58:47;;;;;;;13.85;7.75;;;17.80;99.90;;;;;;5052808;28;20057;-48